Back to Top

Language: 

My Weather Underground Personal Weather Station Historical Data with Graphs...

Delerius Weather Station Historical Data
Daily Summary for March 7, 2017 Units:  Both    English   Metric
« Previous Day
Next Day »
Daily Weekly Monthly Yearly Custom
  High: Low: Average:
Temperature: 51.9 °F /  11.1 °C 38.1 °F /  3.4 °C 44.8 °F /  7.1 °C
Dew Point: 42.1 °F /  5.6 °C 34.3 °F /  1.3 °C 37.3 °F /  2.9 °C
Humidity: 92 % 54 % 76 %
Wind Speed: 14.0 mph /  22.5 km/h - 6.3 mph /  10.1 km/h
Wind Gust: 18.0 mph /  29 km/h - -
Wind:- - WSW
Pressure: 30.00 in /  1015.8 hPa 29.77 in /  1008 hPa -
Precipitation: 0.01 in /  0.25 mm    
Historical Graphs
 
 
Tabular Data for March 7, 2017
Time Temperature Dew Point Pressure Wind Wind Speed Wind Gust Humidity Rainfall Rate (Hourly) solar Conditions
00:00 40.7 °F /  4.8 °C 37.4 °F /  3 °C 29.88 in /  1011.7 hPa WNW 8.0 mph /  12.9 km/h 9.0 mph /  14.5 km/h 88 % 0.00 in /  0 mm 0 W/m2
00:05 40.6 °F /  4.8 °C 37.3 °F /  2.9 °C 29.88 in /  1011.7 hPa WNW 8.0 mph /  12.9 km/h 10.0 mph /  16.1 km/h 88 % 0.00 in /  0 mm 0 W/m2
00:15 40.4 °F /  4.7 °C 37.1 °F /  2.8 °C 29.88 in /  1011.7 hPa West 9.0 mph /  14.5 km/h 12.0 mph /  19.3 km/h 88 % 0.00 in /  0 mm 0 W/m2
00:20 40.4 °F /  4.7 °C 37.1 °F /  2.8 °C 29.88 in /  1011.7 hPa NW 9.0 mph /  14.5 km/h 9.0 mph /  14.5 km/h 88 % 0.00 in /  0 mm 0 W/m2
00:25 40.3 °F /  4.6 °C 37.0 °F /  2.8 °C 29.89 in /  1012.1 hPa West 9.0 mph /  14.5 km/h 9.0 mph /  14.5 km/h 88 % 0.00 in /  0 mm 0 W/m2
00:35 40.2 °F /  4.6 °C 36.6 °F /  2.6 °C 29.89 in /  1012.1 hPa West 9.0 mph /  14.5 km/h 9.0 mph /  14.5 km/h 87 % 0.00 in /  0 mm 0 W/m2
00:40 40.1 °F /  4.5 °C 36.5 °F /  2.5 °C 29.89 in /  1012.1 hPa NW 9.0 mph /  14.5 km/h 9.0 mph /  14.5 km/h 87 % 0.00 in /  0 mm 0 W/m2
00:45 40.1 °F /  4.5 °C 36.5 °F /  2.5 °C 29.89 in /  1012.1 hPa WNW 9.0 mph /  14.5 km/h 9.0 mph /  14.5 km/h 87 % 0.00 in /  0 mm 0 W/m2
00:55 39.9 °F /  4.4 °C 36.3 °F /  2.4 °C 29.89 in /  1012.1 hPa West 6.0 mph /  9.7 km/h 10.0 mph /  16.1 km/h 87 % 0.00 in /  0 mm 0 W/m2
01:00 39.9 °F /  4.4 °C 36.6 °F /  2.6 °C 29.90 in /  1012.4 hPa NW 7.0 mph /  11.3 km/h 7.0 mph /  11.3 km/h 88 % 0.00 in /  0 mm 0 W/m2
01:05 39.9 °F /  4.4 °C 36.6 °F /  2.6 °C 29.90 in /  1012.4 hPa NW 8.0 mph /  12.9 km/h 12.0 mph /  19.3 km/h 88 % 0.00 in /  0 mm 0 W/m2
01:10 39.9 °F /  4.4 °C 36.6 °F /  2.6 °C 29.90 in /  1012.4 hPa NNW 8.0 mph /  12.9 km/h 8.0 mph /  12.9 km/h 88 % 0.00 in /  0 mm 0 W/m2
01:15 40.0 °F /  4.4 °C 36.7 °F /  2.6 °C 29.90 in /  1012.4 hPa WNW 9.0 mph /  14.5 km/h 9.0 mph /  14.5 km/h 88 % 0.00 in /  0 mm 0 W/m2
01:20 40.1 °F /  4.5 °C 36.8 °F /  2.7 °C 29.90 in /  1012.4 hPa WNW 9.0 mph /  14.5 km/h 9.0 mph /  14.5 km/h 88 % 0.00 in /  0 mm 0 W/m2
01:30 40.2 °F /  4.6 °C 36.9 °F /  2.7 °C 29.91 in /  1012.8 hPa WNW 7.0 mph /  11.3 km/h 7.0 mph /  11.3 km/h 88 % 0.00 in /  0 mm 0 W/m2
01:35 40.3 °F /  4.6 °C 37.0 °F /  2.8 °C 29.91 in /  1012.8 hPa WNW 6.0 mph /  9.7 km/h 15.0 mph /  24.1 km/h 88 % 0.00 in /  0 mm 0 W/m2
01:40 40.3 °F /  4.6 °C 37.0 °F /  2.8 °C 29.91 in /  1012.8 hPa NW 5.0 mph /  8 km/h 5.0 mph /  8 km/h 88 % 0.00 in /  0 mm 0 W/m2
01:45 40.4 °F /  4.7 °C 37.1 °F /  2.8 °C 29.91 in /  1012.8 hPa WNW 6.0 mph /  9.7 km/h 6.0 mph /  9.7 km/h 88 % 0.00 in /  0 mm 0 W/m2
01:55 40.5 °F /  4.7 °C 37.2 °F /  2.9 °C 29.91 in /  1012.8 hPa WNW 6.0 mph /  9.7 km/h 15.0 mph /  24.1 km/h 88 % 0.00 in /  0 mm 0 W/m2
02:00 40.5 °F /  4.7 °C 37.2 °F /  2.9 °C 29.91 in /  1012.8 hPa NW 5.0 mph /  8 km/h 5.0 mph /  8 km/h 88 % 0.00 in /  0 mm 0 W/m2
02:05 40.5 °F /  4.7 °C 37.5 °F /  3.1 °C 29.91 in /  1012.8 hPa NW 5.0 mph /  8 km/h 15.0 mph /  24.1 km/h 89 % 0.00 in /  0 mm 0 W/m2
02:15 40.5 °F /  4.7 °C 37.5 °F /  3.1 °C 29.90 in /  1012.4 hPa NNW 6.0 mph /  9.7 km/h 15.0 mph /  24.1 km/h 89 % 0.00 in /  0 mm 0 W/m2
02:20 40.5 °F /  4.7 °C 37.5 °F /  3.1 °C 29.90 in /  1012.4 hPa NW 6.0 mph /  9.7 km/h 15.0 mph /  24.1 km/h 89 % 0.00 in /  0 mm 0 W/m2
02:25 40.4 °F /  4.7 °C 37.4 °F /  3 °C 29.90 in /  1012.4 hPa NW 6.0 mph /  9.7 km/h 15.0 mph /  24.1 km/h 89 % 0.00 in /  0 mm 0 W/m2
02:30 40.2 °F /  4.6 °C 37.2 °F /  2.9 °C 29.90 in /  1012.4 hPa WNW 4.0 mph /  6.4 km/h 15.0 mph /  24.1 km/h 89 % 0.00 in /  0 mm 0 W/m2
02:35 40.1 °F /  4.5 °C 37.1 °F /  2.8 °C 29.90 in /  1012.4 hPa NW 3.0 mph /  4.8 km/h 15.0 mph /  24.1 km/h 89 % 0.00 in /  0 mm 0 W/m2
02:40 40.2 °F /  4.6 °C 37.5 °F /  3.1 °C 29.90 in /  1012.4 hPa NW 5.0 mph /  8 km/h 5.0 mph /  8 km/h 90 % 0.00 in /  0 mm 0 W/m2
02:45 40.3 °F /  4.6 °C 37.6 °F /  3.1 °C 29.91 in /  1012.8 hPa NW 5.0 mph /  8 km/h 15.0 mph /  24.1 km/h 90 % 0.00 in /  0 mm 0 W/m2
02:50 40.4 °F /  4.7 °C 37.7 °F /  3.2 °C 29.91 in /  1012.8 hPa NW 5.0 mph /  8 km/h 15.0 mph /  24.1 km/h 90 % 0.00 in /  0 mm 0 W/m2
02:55 40.5 °F /  4.7 °C 37.8 °F /  3.2 °C 29.91 in /  1012.8 hPa NW 6.0 mph /  9.7 km/h 15.0 mph /  24.1 km/h 90 % 0.00 in /  0 mm 0 W/m2
03:00 40.5 °F /  4.7 °C 37.8 °F /  3.2 °C 29.91 in /  1012.8 hPa WNW 8.0 mph /  12.9 km/h 15.0 mph /  24.1 km/h 90 % 0.00 in /  0 mm 0 W/m2
03:10 40.4 °F /  4.7 °C 37.4 °F /  3 °C 29.91 in /  1012.8 hPa WNW 9.0 mph /  14.5 km/h 9.0 mph /  14.5 km/h 89 % 0.00 in /  0 mm 0 W/m2
03:20 40.3 °F /  4.6 °C 37.3 °F /  2.9 °C 29.91 in /  1012.8 hPa WNW 8.0 mph /  12.9 km/h 15.0 mph /  24.1 km/h 89 % 0.00 in /  0 mm 0 W/m2
03:25 40.3 °F /  4.6 °C 37.3 °F /  2.9 °C 29.91 in /  1012.8 hPa West 8.0 mph /  12.9 km/h 15.0 mph /  24.1 km/h 89 % 0.00 in /  0 mm 0 W/m2
03:30 40.3 °F /  4.6 °C 37.3 °F /  2.9 °C 29.92 in /  1013.1 hPa WNW 10.0 mph /  16.1 km/h 10.0 mph /  16.1 km/h 89 % 0.00 in /  0 mm 0 W/m2
03:35 40.3 °F /  4.6 °C 37.3 °F /  2.9 °C 29.92 in /  1013.1 hPa WNW 10.0 mph /  16.1 km/h 15.0 mph /  24.1 km/h 89 % 0.00 in /  0 mm 0 W/m2
03:45 40.2 °F /  4.6 °C 37.2 °F /  2.9 °C 29.92 in /  1013.1 hPa West 8.0 mph /  12.9 km/h 11.0 mph /  17.7 km/h 89 % 0.00 in /  0 mm 0 W/m2
03:50 40.2 °F /  4.6 °C 37.2 °F /  2.9 °C 29.92 in /  1013.1 hPa WNW 9.0 mph /  14.5 km/h 15.0 mph /  24.1 km/h 89 % 0.00 in /  0 mm 0 W/m2
03:55 40.1 °F /  4.5 °C 37.1 °F /  2.8 °C 29.93 in /  1013.4 hPa WNW 8.0 mph /  12.9 km/h 15.0 mph /  24.1 km/h 89 % 0.00 in /  0 mm 0 W/m2
04:00 40.0 °F /  4.4 °C 37.0 °F /  2.8 °C 29.93 in /  1013.4 hPa WNW 8.0 mph /  12.9 km/h 15.0 mph /  24.1 km/h 89 % 0.00 in /  0 mm 0 W/m2
04:05 39.9 °F /  4.4 °C 36.9 °F /  2.7 °C 29.93 in /  1013.4 hPa WNW 7.0 mph /  11.3 km/h 15.0 mph /  24.1 km/h 89 % 0.00 in /  0 mm 0 W/m2
04:15 39.7 °F /  4.3 °C 36.7 °F /  2.6 °C 29.93 in /  1013.4 hPa WNW 8.0 mph /  12.9 km/h 8.0 mph /  12.9 km/h 89 % 0.00 in /  0 mm 0 W/m2
04:20 39.7 °F /  4.3 °C 36.7 °F /  2.6 °C 29.93 in /  1013.4 hPa WNW 7.0 mph /  11.3 km/h 15.0 mph /  24.1 km/h 89 % 0.00 in /  0 mm 0 W/m2
04:25 39.6 °F /  4.2 °C 36.6 °F /  2.6 °C 29.94 in /  1013.8 hPa NW 7.0 mph /  11.3 km/h 15.0 mph /  24.1 km/h 89 % 0.00 in /  0 mm 0 W/m2
04:35 39.6 °F /  4.2 °C 36.6 °F /  2.6 °C 29.94 in /  1013.8 hPa West 8.0 mph /  12.9 km/h 15.0 mph /  24.1 km/h 89 % 0.00 in /  0 mm 0 W/m2
04:40 39.5 °F /  4.2 °C 36.5 °F /  2.5 °C 29.94 in /  1013.8 hPa WNW 8.0 mph /  12.9 km/h 15.0 mph /  24.1 km/h 89 % 0.00 in /  0 mm 0 W/m2
04:50 39.6 °F /  4.2 °C 36.9 °F /  2.7 °C 29.94 in /  1013.8 hPa WNW 8.0 mph /  12.9 km/h 8.0 mph /  12.9 km/h 90 % 0.00 in /  0 mm 0 W/m2
04:55 39.6 °F /  4.2 °C 36.9 °F /  2.7 °C 29.94 in /  1013.8 hPa WNW 7.0 mph /  11.3 km/h 10.0 mph /  16.1 km/h 90 % 0.00 in /  0 mm 0 W/m2
05:00 39.7 °F /  4.3 °C 37.0 °F /  2.8 °C 29.95 in /  1014.1 hPa NW 7.0 mph /  11.3 km/h 15.0 mph /  24.1 km/h 90 % 0.00 in /  0 mm 0 W/m2
05:05 39.7 °F /  4.3 °C 37.0 °F /  2.8 °C 29.95 in /  1014.1 hPa NNW 7.0 mph /  11.3 km/h 15.0 mph /  24.1 km/h 90 % 0.00 in /  0 mm 0 W/m2
05:10 39.7 °F /  4.3 °C 37.0 °F /  2.8 °C 29.94 in /  1013.8 hPa West 7.0 mph /  11.3 km/h 15.0 mph /  24.1 km/h 90 % 0.00 in /  0 mm 0 W/m2
05:15 39.6 °F /  4.2 °C 36.9 °F /  2.7 °C 29.94 in /  1013.8 hPa West 7.0 mph /  11.3 km/h 15.0 mph /  24.1 km/h 90 % 0.00 in /  0 mm 0 W/m2
05:25 39.5 °F /  4.2 °C 36.8 °F /  2.7 °C 29.94 in /  1013.8 hPa West 8.0 mph /  12.9 km/h 15.0 mph /  24.1 km/h 90 % 0.00 in /  0 mm 0 W/m2
05:30 39.4 °F /  4.1 °C 36.7 °F /  2.6 °C 29.94 in /  1013.8 hPa WNW 8.0 mph /  12.9 km/h 8.0 mph /  12.9 km/h 90 % 0.00 in /  0 mm 0 W/m2
05:35 39.3 °F /  4.1 °C 36.6 °F /  2.6 °C 29.94 in /  1013.8 hPa WNW 6.0 mph /  9.7 km/h 15.0 mph /  24.1 km/h 90 % 0.00 in /  0 mm 0 W/m2
05:40 39.1 °F /  3.9 °C 36.4 °F /  2.4 °C 29.95 in /  1014.1 hPa WNW 5.0 mph /  8 km/h 5.0 mph /  8 km/h 90 % 0.00 in /  0 mm 0 W/m2
05:45 38.9 °F /  3.8 °C 36.2 °F /  2.3 °C 29.95 in /  1014.1 hPa West 3.0 mph /  4.8 km/h 15.0 mph /  24.1 km/h 90 % 0.00 in /  0 mm 0 W/m2
05:55 38.5 °F /  3.6 °C 36.1 °F /  2.3 °C 29.95 in /  1014.1 hPa WNW 2.0 mph /  3.2 km/h 5.0 mph /  8 km/h 91 % 0.00 in /  0 mm 0 W/m2
06:00 38.4 °F /  3.6 °C 36.0 °F /  2.2 °C 29.95 in /  1014.1 hPa NW 4.0 mph /  6.4 km/h 15.0 mph /  24.1 km/h 91 % 0.00 in /  0 mm 0 W/m2
06:10 38.3 °F /  3.5 °C 36.2 °F /  2.3 °C 29.95 in /  1014.1 hPa WNW 7.0 mph /  11.3 km/h 7.0 mph /  11.3 km/h 92 % 0.00 in /  0 mm 0 W/m2
06:15 38.3 °F /  3.5 °C 36.2 °F /  2.3 °C 29.95 in /  1014.1 hPa NW 7.0 mph /  11.3 km/h 8.0 mph /  12.9 km/h 92 % 0.00 in /  0 mm 0 W/m2
06:20 38.4 °F /  3.6 °C 36.3 °F /  2.4 °C 29.95 in /  1014.1 hPa NW 7.0 mph /  11.3 km/h 7.0 mph /  11.3 km/h 92 % 0.00 in /  0 mm 0 W/m2
06:30 38.3 °F /  3.5 °C 35.9 °F /  2.2 °C 29.95 in /  1014.1 hPa WNW 7.0 mph /  11.3 km/h 7.0 mph /  11.3 km/h 91 % 0.00 in /  0 mm 0 W/m2
06:35 38.2 °F /  3.4 °C 35.8 °F /  2.1 °C 29.95 in /  1014.1 hPa West 7.0 mph /  11.3 km/h 9.0 mph /  14.5 km/h 91 % 0.00 in /  0 mm 0 W/m2
06:40 38.2 °F /  3.4 °C 35.8 °F /  2.1 °C 29.95 in /  1014.1 hPa NW 8.0 mph /  12.9 km/h 15.0 mph /  24.1 km/h 91 % 0.00 in /  0 mm 5 W/m2
06:45 38.1 °F /  3.4 °C 35.7 °F /  2.1 °C 29.95 in /  1014.1 hPa WNW 8.0 mph /  12.9 km/h 15.0 mph /  24.1 km/h 91 % 0.00 in /  0 mm 7 W/m2
06:50 38.2 °F /  3.4 °C 36.1 °F /  2.3 °C 29.95 in /  1014.1 hPa WNW 8.0 mph /  12.9 km/h 15.0 mph /  24.1 km/h 92 % 0.00 in /  0 mm 11 W/m2
06:55 38.2 °F /  3.4 °C 35.8 °F /  2.1 °C 29.95 in /  1014.1 hPa NW 7.0 mph /  11.3 km/h 15.0 mph /  24.1 km/h 91 % 0.00 in /  0 mm 12 W/m2
07:05 38.4 °F /  3.6 °C 36.0 °F /  2.2 °C 29.95 in /  1014.1 hPa WNW 6.0 mph /  9.7 km/h 7.0 mph /  11.3 km/h 91 % 0.00 in /  0 mm 39 W/m2
07:10 38.5 °F /  3.6 °C 36.1 °F /  2.3 °C 29.95 in /  1014.1 hPa WNW 5.0 mph /  8 km/h 5.0 mph /  8 km/h 91 % 0.00 in /  0 mm 53 W/m2
07:15 38.7 °F /  3.7 °C 36.3 °F /  2.4 °C 29.95 in /  1014.1 hPa WNW 5.0 mph /  8 km/h 15.0 mph /  24.1 km/h 91 % 0.00 in /  0 mm 72 W/m2
07:20 38.9 °F /  3.8 °C 36.5 °F /  2.5 °C 29.96 in /  1014.4 hPa West 3.0 mph /  4.8 km/h 3.0 mph /  4.8 km/h 91 % 0.00 in /  0 mm 86 W/m2
07:30 39.4 °F /  4.1 °C 37.0 °F /  2.8 °C 29.96 in /  1014.4 hPa WNW 2.0 mph /  3.2 km/h 2.0 mph /  3.2 km/h 91 % 0.00 in /  0 mm 105 W/m2
07:40 40.6 °F /  4.8 °C 37.9 °F /  3.3 °C 29.96 in /  1014.4 hPa Calm   15.0 mph /  24.1 km/h 90 % 0.00 in /  0 mm 116 W/m2
07:45 41.3 °F /  5.2 °C 38.0 °F /  3.3 °C 29.96 in /  1014.4 hPa Calm   15.0 mph /  24.1 km/h 88 % 0.00 in /  0 mm 130 W/m2
07:50 41.6 °F /  5.3 °C 37.7 °F /  3.2 °C 29.96 in /  1014.4 hPa Calm   15.0 mph /  24.1 km/h 86 % 0.00 in /  0 mm 155 W/m2
07:55 41.7 °F /  5.4 °C 37.8 °F /  3.2 °C 29.96 in /  1014.4 hPa Calm   15.0 mph /  24.1 km/h 86 % 0.00 in /  0 mm 172 W/m2
08:00 41.8 °F /  5.4 °C 37.6 °F /  3.1 °C 29.97 in /  1014.8 hPa WNW 1.0 mph /  1.6 km/h 1.0 mph /  1.6 km/h 85 % 0.00 in /  0 mm 179 W/m2
08:10 41.7 °F /  5.4 °C 37.2 °F /  2.9 °C 29.97 in /  1014.8 hPa West 3.0 mph /  4.8 km/h 15.0 mph /  24.1 km/h 84 % 0.00 in /  0 mm 142 W/m2
08:15 41.8 °F /  5.4 °C 37.3 °F /  2.9 °C 29.97 in /  1014.8 hPa West 4.0 mph /  6.4 km/h 15.0 mph /  24.1 km/h 84 % 0.00 in /  0 mm 223 W/m2
08:20 42.0 °F /  5.6 °C 37.5 °F /  3.1 °C 29.97 in /  1014.8 hPa WSW 4.0 mph /  6.4 km/h 15.0 mph /  24.1 km/h 84 % 0.00 in /  0 mm 207 W/m2
08:25 42.2 °F /  5.7 °C 37.7 °F /  3.2 °C 29.97 in /  1014.8 hPa West 6.0 mph /  9.7 km/h 15.0 mph /  24.1 km/h 84 % 0.00 in /  0 mm 239 W/m2
08:30 42.4 °F /  5.8 °C 37.9 °F /  3.3 °C 29.97 in /  1014.8 hPa NW 7.0 mph /  11.3 km/h 7.0 mph /  11.3 km/h 84 % 0.00 in /  0 mm 251 W/m2
08:35 42.6 °F /  5.9 °C 37.8 °F /  3.2 °C 29.97 in /  1014.8 hPa West 8.0 mph /  12.9 km/h 8.0 mph /  12.9 km/h 83 % 0.00 in /  0 mm 265 W/m2
08:40 42.9 °F /  6.1 °C 38.1 °F /  3.4 °C 29.97 in /  1014.8 hPa West 8.0 mph /  12.9 km/h 8.0 mph /  12.9 km/h 83 % 0.00 in /  0 mm 274 W/m2
08:45 43.0 °F /  6.1 °C 38.2 °F /  3.4 °C 29.97 in /  1014.8 hPa West 8.0 mph /  12.9 km/h 15.0 mph /  24.1 km/h 83 % 0.00 in /  0 mm 285 W/m2
08:50 43.2 °F /  6.2 °C 38.4 °F /  3.6 °C 29.97 in /  1014.8 hPa WSW 8.0 mph /  12.9 km/h 15.0 mph /  24.1 km/h 83 % 0.00 in /  0 mm 299 W/m2
09:00 43.6 °F /  6.4 °C 38.5 °F /  3.6 °C 29.96 in /  1014.4 hPa West 8.0 mph /  12.9 km/h 15.0 mph /  24.1 km/h 82 % 0.00 in /  0 mm 330 W/m2
09:05 44.1 °F /  6.7 °C 38.6 °F /  3.7 °C 29.96 in /  1014.4 hPa West 9.0 mph /  14.5 km/h 15.0 mph /  24.1 km/h 81 % 0.00 in /  0 mm 352 W/m2
09:10 44.4 °F /  6.9 °C 38.6 °F /  3.7 °C 29.96 in /  1014.4 hPa West 10.0 mph /  16.1 km/h 10.0 mph /  16.1 km/h 80 % 0.00 in /  0 mm 380 W/m2
09:20 44.6 °F /  7 °C 38.5 °F /  3.6 °C 29.97 in /  1014.8 hPa West 9.0 mph /  14.5 km/h 9.0 mph /  14.5 km/h 79 % 0.00 in /  0 mm 241 W/m2
09:25 44.5 °F /  6.9 °C 38.4 °F /  3.6 °C 29.97 in /  1014.8 hPa SW 9.0 mph /  14.5 km/h 15.0 mph /  24.1 km/h 79 % 0.00 in /  0 mm 250 W/m2
09:35 43.9 °F /  6.6 °C 37.8 °F /  3.2 °C 29.97 in /  1014.8 hPa WNW 7.0 mph /  11.3 km/h 15.0 mph /  24.1 km/h 79 % 0.00 in /  0 mm 127 W/m2
09:40 43.6 °F /  6.4 °C 37.5 °F /  3.1 °C 29.97 in /  1014.8 hPa West 7.0 mph /  11.3 km/h 15.0 mph /  24.1 km/h 79 % 0.00 in /  0 mm 274 W/m2
09:50 44.2 °F /  6.8 °C 38.4 °F /  3.6 °C 29.97 in /  1014.8 hPa West 7.0 mph /  11.3 km/h 7.0 mph /  11.3 km/h 80 % 0.00 in /  0 mm 362 W/m2
10:00 45.1 °F /  7.3 °C 39.0 °F /  3.9 °C 29.98 in /  1015.1 hPa West 6.0 mph /  9.7 km/h 15.0 mph /  24.1 km/h 79 % 0.00 in /  0 mm 388 W/m2
10:10 46.0 °F /  7.8 °C 38.9 °F /  3.8 °C 29.99 in /  1015.5 hPa WNW 8.0 mph /  12.9 km/h 15.0 mph /  24.1 km/h 76 % 0.00 in /  0 mm 404 W/m2
10:15 46.2 °F /  7.9 °C 39.1 °F /  3.9 °C 29.99 in /  1015.5 hPa WNW 9.0 mph /  14.5 km/h 15.0 mph /  24.1 km/h 76 % 0.00 in /  0 mm 471 W/m2
10:20 46.6 °F /  8.1 °C 39.4 °F /  4.1 °C 29.99 in /  1015.5 hPa WNW 8.0 mph /  12.9 km/h 15.0 mph /  24.1 km/h 76 % 0.00 in /  0 mm 497 W/m2
10:25 46.9 °F /  8.3 °C 39.4 °F /  4.1 °C 30.00 in /  1015.8 hPa West 8.0 mph /  12.9 km/h 15.0 mph /  24.1 km/h 75 % 0.00 in /  0 mm 352 W/m2
10:30 47.0 °F /  8.3 °C 39.1 °F /  3.9 °C 30.00 in /  1015.8 hPa WNW 8.0 mph /  12.9 km/h 15.0 mph /  24.1 km/h 74 % 0.00 in /  0 mm 253 W/m2
10:40 46.6 °F /  8.1 °C 38.1 °F /  3.4 °C 30.00 in /  1015.8 hPa WNW 9.0 mph /  14.5 km/h 9.0 mph /  14.5 km/h 72 % 0.00 in /  0 mm 297 W/m2
10:45 46.6 °F /  8.1 °C 38.4 °F /  3.6 °C 29.99 in /  1015.5 hPa WNW 8.0 mph /  12.9 km/h 15.0 mph /  24.1 km/h 73 % 0.00 in /  0 mm 492 W/m2
10:50 46.9 °F /  8.3 °C 38.7 °F /  3.7 °C 29.99 in /  1015.5 hPa WNW 8.0 mph /  12.9 km/h 8.0 mph /  12.9 km/h 73 % 0.00 in /  0 mm 478 W/m2
10:55 47.3 °F /  8.5 °C 38.7 °F /  3.7 °C 29.99 in /  1015.5 hPa WNW 8.0 mph /  12.9 km/h 11.0 mph /  17.7 km/h 72 % 0.00 in /  0 mm 487 W/m2
11:00 47.3 °F /  8.5 °C 38.7 °F /  3.7 °C 29.99 in /  1015.5 hPa WSW 9.0 mph /  14.5 km/h 15.0 mph /  24.1 km/h 72 % 0.00 in /  0 mm 475 W/m2
11:10 47.4 °F /  8.6 °C 38.1 °F /  3.4 °C 29.99 in /  1015.5 hPa West 10.0 mph /  16.1 km/h 10.0 mph /  16.1 km/h 70 % 0.00 in /  0 mm 338 W/m2
11:15 47.4 °F /  8.6 °C 38.1 °F /  3.4 °C 29.99 in /  1015.5 hPa WNW 10.0 mph /  16.1 km/h 15.0 mph /  24.1 km/h 70 % 0.00 in /  0 mm 334 W/m2
11:20 47.3 °F /  8.5 °C 37.6 °F /  3.1 °C 30.00 in /  1015.8 hPa West 8.0 mph /  12.9 km/h 15.0 mph /  24.1 km/h 69 % 0.00 in /  0 mm 262 W/m2
11:25 47.4 °F /  8.6 °C 38.1 °F /  3.4 °C 30.00 in /  1015.8 hPa WNW 8.0 mph /  12.9 km/h 15.0 mph /  24.1 km/h 70 % 0.00 in /  0 mm 459 W/m2
11:30 47.6 °F /  8.7 °C 37.9 °F /  3.3 °C 29.99 in /  1015.5 hPa WNW 9.0 mph /  14.5 km/h 15.0 mph /  24.1 km/h 69 % 0.00 in /  0 mm 276 W/m2
11:35 47.8 °F /  8.8 °C 38.1 °F /  3.4 °C 29.99 in /  1015.5 hPa WNW 7.0 mph /  11.3 km/h 15.0 mph /  24.1 km/h 69 % 0.00 in /  0 mm 526 W/m2
11:40 48.2 °F /  9 °C 38.1 °F /  3.4 °C 29.99 in /  1015.5 hPa West 5.0 mph /  8 km/h 15.0 mph /  24.1 km/h 68 % 0.00 in /  0 mm 248 W/m2
11:50 48.3 °F /  9.1 °C 38.2 °F /  3.4 °C 29.99 in /  1015.5 hPa WNW 6.0 mph /  9.7 km/h 6.0 mph /  9.7 km/h 68 % 0.00 in /  0 mm 313 W/m2
11:55 48.5 °F /  9.2 °C 38.0 °F /  3.3 °C 29.98 in /  1015.1 hPa West 5.0 mph /  8 km/h 8.0 mph /  12.9 km/h 67 % 0.00 in /  0 mm 462 W/m2
12:00 48.6 °F /  9.2 °C 37.4 °F /  3 °C 29.99 in /  1015.5 hPa NW 5.0 mph /  8 km/h 15.0 mph /  24.1 km/h 65 % 0.00 in /  0 mm 480 W/m2
12:05 48.8 °F /  9.3 °C 37.9 °F /  3.3 °C 29.99 in /  1015.5 hPa West 6.0 mph /  9.7 km/h 15.0 mph /  24.1 km/h 66 % 0.00 in /  0 mm 538 W/m2
12:15 49.3 °F /  9.6 °C 38.0 °F /  3.3 °C 29.99 in /  1015.5 hPa NW 6.0 mph /  9.7 km/h 15.0 mph /  24.1 km/h 65 % 0.00 in /  0 mm 555 W/m2
12:20 49.7 °F /  9.8 °C 38.4 °F /  3.6 °C 29.99 in /  1015.5 hPa WSW 4.0 mph /  6.4 km/h 15.0 mph /  24.1 km/h 65 % 0.00 in /  0 mm 485 W/m2
12:30 49.0 °F /  9.4 °C 38.5 °F /  3.6 °C 29.99 in /  1015.5 hPa SW 6.0 mph /  9.7 km/h 6.0 mph /  9.7 km/h 67 % 0.00 in /  0 mm 432 W/m2
12:35 49.1 °F /  9.5 °C 38.6 °F /  3.7 °C 29.99 in /  1015.5 hPa WSW 5.0 mph /  8 km/h 15.0 mph /  24.1 km/h 67 % 0.00 in /  0 mm 522 W/m2
12:40 49.2 °F /  9.6 °C 38.7 °F /  3.7 °C 30.00 in /  1015.8 hPa WSW 5.0 mph /  8 km/h 15.0 mph /  24.1 km/h 67 % 0.00 in /  0 mm 635 W/m2
12:45 49.5 °F /  9.7 °C 39.0 °F /  3.9 °C 30.00 in /  1015.8 hPa WSW 6.0 mph /  9.7 km/h 15.0 mph /  24.1 km/h 67 % 0.00 in /  0 mm 596 W/m2
12:55 50.0 °F /  10 °C 38.7 °F /  3.7 °C 29.99 in /  1015.5 hPa West 7.0 mph /  11.3 km/h 15.0 mph /  24.1 km/h 65 % 0.00 in /  0 mm 629 W/m2
13:00 50.4 °F /  10.2 °C 39.1 °F /  3.9 °C 29.99 in /  1015.5 hPa WSW 7.0 mph /  11.3 km/h 15.0 mph /  24.1 km/h 65 % 0.00 in /  0 mm 446 W/m2
13:05 50.2 °F /  10.1 °C 38.1 °F /  3.4 °C 29.99 in /  1015.5 hPa West 7.0 mph /  11.3 km/h 15.0 mph /  24.1 km/h 63 % 0.00 in /  0 mm 424 W/m2
13:10 50.4 °F /  10.2 °C 38.3 °F /  3.5 °C 29.98 in /  1015.1 hPa WSW 6.0 mph /  9.7 km/h 6.0 mph /  9.7 km/h 63 % 0.00 in /  0 mm 457 W/m2
13:15 50.5 °F /  10.3 °C 38.0 °F /  3.3 °C 29.98 in /  1015.1 hPa WNW 5.0 mph /  8 km/h 8.0 mph /  12.9 km/h 62 % 0.00 in /  0 mm 369 W/m2
13:20 50.9 °F /  10.5 °C 37.9 °F /  3.3 °C 29.99 in /  1015.5 hPa WNW 6.0 mph /  9.7 km/h 6.0 mph /  9.7 km/h 61 % 0.00 in /  0 mm 350 W/m2
13:30 51.2 °F /  10.7 °C 37.8 °F /  3.2 °C 29.98 in /  1015.1 hPa West 4.0 mph /  6.4 km/h 15.0 mph /  24.1 km/h 60 % 0.00 in /  0 mm 457 W/m2
13:35 51.3 °F /  10.7 °C 37.4 °F /  3 °C 29.98 in /  1015.1 hPa West 5.0 mph /  8 km/h 15.0 mph /  24.1 km/h 59 % 0.00 in /  0 mm 332 W/m2
13:40 51.3 °F /  10.7 °C 38.3 °F /  3.5 °C 29.98 in /  1015.1 hPa West 6.0 mph /  9.7 km/h 15.0 mph /  24.1 km/h 61 % 0.00 in /  0 mm 536 W/m2
13:45 51.6 °F /  10.9 °C 38.6 °F /  3.7 °C 29.98 in /  1015.1 hPa NW 5.0 mph /  8 km/h 15.0 mph /  24.1 km/h 61 % 0.00 in /  0 mm 670 W/m2
13:55 51.9 °F /  11.1 °C 37.6 °F /  3.1 °C 29.97 in /  1014.8 hPa West 4.0 mph /  6.4 km/h 15.0 mph /  24.1 km/h 58 % 0.00 in /  0 mm 279 W/m2
14:00 51.6 °F /  10.9 °C 37.3 °F /  2.9 °C 29.97 in /  1014.8 hPa West 4.0 mph /  6.4 km/h 4.0 mph /  6.4 km/h 58 % 0.00 in /  0 mm 262 W/m2
14:10 51.4 °F /  10.8 °C 37.5 °F /  3.1 °C 29.97 in /  1014.8 hPa WNW 2.0 mph /  3.2 km/h 15.0 mph /  24.1 km/h 59 % 0.00 in /  0 mm 294 W/m2
14:15 51.4 °F /  10.8 °C 37.5 °F /  3.1 °C 29.97 in /  1014.8 hPa WSW 2.0 mph /  3.2 km/h 15.0 mph /  24.1 km/h 59 % 0.00 in /  0 mm 246 W/m2
14:20 51.4 °F /  10.8 °C 38.0 °F /  3.3 °C 29.96 in /  1014.4 hPa SSW 3.0 mph /  4.8 km/h 3.0 mph /  4.8 km/h 60 % 0.00 in /  0 mm 459 W/m2
14:25 51.4 °F /  10.8 °C 37.1 °F /  2.8 °C 29.96 in /  1014.4 hPa South 4.0 mph /  6.4 km/h 5.0 mph /  8 km/h 58 % 0.00 in /  0 mm 311 W/m2
14:35 51.3 °F /  10.7 °C 37.0 °F /  2.8 °C 29.95 in /  1014.1 hPa SSW 4.0 mph /  6.4 km/h 15.0 mph /  24.1 km/h 58 % 0.00 in /  0 mm 232 W/m2
14:40 51.5 °F /  10.8 °C 37.2 °F /  2.9 °C 29.95 in /  1014.1 hPa SSW 3.0 mph /  4.8 km/h 15.0 mph /  24.1 km/h 58 % 0.00 in /  0 mm 406 W/m2
14:45 51.3 °F /  10.7 °C 36.6 °F /  2.6 °C 29.95 in /  1014.1 hPa South 4.0 mph /  6.4 km/h 15.0 mph /  24.1 km/h 57 % 0.00 in /  0 mm 171 W/m2
14:50 50.9 °F /  10.5 °C 37.1 °F /  2.8 °C 29.95 in /  1014.1 hPa SW 5.0 mph /  8 km/h 15.0 mph /  24.1 km/h 59 % 0.00 in /  0 mm 179 W/m2
14:55 50.5 °F /  10.3 °C 36.7 °F /  2.6 °C 29.95 in /  1014.1 hPa SW 5.0 mph /  8 km/h 15.0 mph /  24.1 km/h 59 % 0.00 in /  0 mm 192 W/m2
15:00 50.2 °F /  10.1 °C 36.0 °F /  2.2 °C 29.94 in /  1013.8 hPa SSW 6.0 mph /  9.7 km/h 6.0 mph /  9.7 km/h 58 % 0.00 in /  0 mm 225 W/m2
15:10 50.3 °F /  10.2 °C 34.3 °F /  1.3 °C 29.94 in /  1013.8 hPa SW 5.0 mph /  8 km/h 5.0 mph /  8 km/h 54 % 0.00 in /  0 mm 192 W/m2
15:15 50.3 °F /  10.2 °C 34.3 °F /  1.3 °C 29.94 in /  1013.8 hPa WSW 5.0 mph /  8 km/h 15.0 mph /  24.1 km/h 54 % 0.00 in /  0 mm 216 W/m2
15:20 50.4 °F /  10.2 °C 34.8 °F /  1.6 °C 29.94 in /  1013.8 hPa WSW 3.0 mph /  4.8 km/h 3.0 mph /  4.8 km/h 55 % 0.00 in /  0 mm 172 W/m2
15:25 50.4 °F /  10.2 °C 34.8 °F /  1.6 °C 29.94 in /  1013.8 hPa SW 3.0 mph /  4.8 km/h 5.0 mph /  8 km/h 55 % 0.00 in /  0 mm 149 W/m2
15:35 49.9 °F /  9.9 °C 35.7 °F /  2.1 °C 29.94 in /  1013.8 hPa SW 6.0 mph /  9.7 km/h 15.0 mph /  24.1 km/h 58 % 0.00 in /  0 mm 255 W/m2
15:40 50.0 °F /  10 °C 35.8 °F /  2.1 °C 29.94 in /  1013.8 hPa SSW 5.0 mph /  8 km/h 5.0 mph /  8 km/h 58 % 0.00 in /  0 mm 295 W/m2
15:50 49.8 °F /  9.9 °C 36.0 °F /  2.2 °C 29.93 in /  1013.4 hPa SW 4.0 mph /  6.4 km/h 4.0 mph /  6.4 km/h 59 % 0.00 in /  0 mm 83 W/m2
15:55 49.6 °F /  9.8 °C 36.3 °F /  2.4 °C 29.94 in /  1013.8 hPa SW 3.0 mph /  4.8 km/h 15.0 mph /  24.1 km/h 60 % 0.00 in /  0 mm 62 W/m2
16:00 49.4 °F /  9.7 °C 36.5 °F /  2.5 °C 29.94 in /  1013.8 hPa SW 3.0 mph /  4.8 km/h 15.0 mph /  24.1 km/h 61 % 0.00 in /  0 mm 118 W/m2
16:05 49.3 °F /  9.6 °C 36.8 °F /  2.7 °C 29.94 in /  1013.8 hPa SW 2.0 mph /  3.2 km/h 15.0 mph /  24.1 km/h 62 % 0.00 in /  0 mm 107 W/m2
16:15 49.2 °F /  9.6 °C 37.1 °F /  2.8 °C 29.94 in /  1013.8 hPa SW 3.0 mph /  4.8 km/h 15.0 mph /  24.1 km/h 63 % 0.00 in /  0 mm 104 W/m2
16:20 49.3 °F /  9.6 °C 37.6 °F /  3.1 °C 29.94 in /  1013.8 hPa SSW 3.0 mph /  4.8 km/h 3.0 mph /  4.8 km/h 64 % 0.00 in /  0 mm 107 W/m2
16:25 49.2 °F /  9.6 °C 36.3 °F /  2.4 °C 29.94 in /  1013.8 hPa SSW 4.0 mph /  6.4 km/h 5.0 mph /  8 km/h 61 % 0.00 in /  0 mm 83 W/m2
16:30 49.1 °F /  9.5 °C 36.2 °F /  2.3 °C 29.94 in /  1013.8 hPa West 4.0 mph /  6.4 km/h 4.0 mph /  6.4 km/h 61 % 0.00 in /  0 mm 70 W/m2
16:35 49.1 °F /  9.5 °C 36.6 °F /  2.6 °C 29.95 in /  1014.1 hPa SSW 4.0 mph /  6.4 km/h 6.0 mph /  9.7 km/h 62 % 0.00 in /  0 mm 54 W/m2
16:40 48.9 °F /  9.4 °C 36.0 °F /  2.2 °C 29.95 in /  1014.1 hPa SW 5.0 mph /  8 km/h 15.0 mph /  24.1 km/h 61 % 0.00 in /  0 mm 40 W/m2
16:50 48.7 °F /  9.3 °C 37.1 °F /  2.8 °C 29.94 in /  1013.8 hPa SSW 3.0 mph /  4.8 km/h 15.0 mph /  24.1 km/h 64 % 0.00 in /  0 mm 69 W/m2
16:55 48.6 °F /  9.2 °C 37.0 °F /  2.8 °C 29.94 in /  1013.8 hPa SW 4.0 mph /  6.4 km/h 15.0 mph /  24.1 km/h 64 % 0.00 in /  0 mm 56 W/m2
17:00 48.4 °F /  9.1 °C 36.8 °F /  2.7 °C 29.94 in /  1013.8 hPa South 5.0 mph /  8 km/h 15.0 mph /  24.1 km/h 64 % 0.00 in /  0 mm 35 W/m2
17:10 48.1 °F /  8.9 °C 36.1 °F /  2.3 °C 29.94 in /  1013.8 hPa SW 5.0 mph /  8 km/h 15.0 mph /  24.1 km/h 63 % 0.00 in /  0 mm 39 W/m2
17:15 48.0 °F /  8.9 °C 36.0 °F /  2.2 °C 29.93 in /  1013.4 hPa SSW 6.0 mph /  9.7 km/h 15.0 mph /  24.1 km/h 63 % 0.00 in /  0 mm 40 W/m2
17:25 47.8 °F /  8.8 °C 36.2 °F /  2.3 °C 29.94 in /  1013.8 hPa SSW 6.0 mph /  9.7 km/h 15.0 mph /  24.1 km/h 64 % 0.00 in /  0 mm 19 W/m2
17:30 47.7 °F /  8.7 °C 36.1 °F /  2.3 °C 29.95 in /  1014.1 hPa SW 6.0 mph /  9.7 km/h 15.0 mph /  24.1 km/h 64 % 0.00 in /  0 mm 14 W/m2
17:35 47.5 °F /  8.6 °C 35.9 °F /  2.2 °C 29.95 in /  1014.1 hPa South 6.0 mph /  9.7 km/h 15.0 mph /  24.1 km/h 64 % 0.00 in /  0 mm 11 W/m2
17:40 47.5 °F /  8.6 °C 36.3 °F /  2.4 °C 29.95 in /  1014.1 hPa SW 6.0 mph /  9.7 km/h 6.0 mph /  9.7 km/h 65 % 0.00 in /  0 mm 9 W/m2
17:45 47.4 °F /  8.6 °C 36.2 °F /  2.3 °C 29.95 in /  1014.1 hPa SW 5.0 mph /  8 km/h 15.0 mph /  24.1 km/h 65 % 0.00 in /  0 mm 9 W/m2
17:55 47.3 °F /  8.5 °C 36.1 °F /  2.3 °C 29.94 in /  1013.8 hPa SSW 3.0 mph /  4.8 km/h 15.0 mph /  24.1 km/h 65 % 0.00 in /  0 mm 0 W/m2
18:00 47.3 °F /  8.5 °C 36.1 °F /  2.3 °C 29.94 in /  1013.8 hPa SSW 3.0 mph /  4.8 km/h 3.0 mph /  4.8 km/h 65 % 0.00 in /  0 mm 0 W/m2
18:05 47.2 °F /  8.4 °C 36.0 °F /  2.2 °C 29.93 in /  1013.4 hPa SSW 2.0 mph /  3.2 km/h 15.0 mph /  24.1 km/h 65 % 0.00 in /  0 mm 0 W/m2
18:10 47.2 °F /  8.4 °C 36.0 °F /  2.2 °C 29.94 in /  1013.8 hPa SSW 2.0 mph /  3.2 km/h 2.0 mph /  3.2 km/h 65 % 0.00 in /  0 mm 0 W/m2
18:15 47.1 °F /  8.4 °C 35.9 °F /  2.2 °C 29.94 in /  1013.8 hPa South 2.0 mph /  3.2 km/h 6.0 mph /  9.7 km/h 65 % 0.00 in /  0 mm 0 W/m2
18:20 47.1 °F /  8.4 °C 35.9 °F /  2.2 °C 29.93 in /  1013.4 hPa South 2.0 mph /  3.2 km/h 15.0 mph /  24.1 km/h 65 % 0.00 in /  0 mm 0 W/m2
18:30 47.1 °F /  8.4 °C 35.9 °F /  2.2 °C 29.93 in /  1013.4 hPa SSW 4.0 mph /  6.4 km/h 15.0 mph /  24.1 km/h 65 % 0.00 in /  0 mm 0 W/m2
18:35 47.1 °F /  8.4 °C 35.9 °F /  2.2 °C 29.93 in /  1013.4 hPa South 4.0 mph /  6.4 km/h 15.0 mph /  24.1 km/h 65 % 0.00 in /  0 mm 0 W/m2
18:40 47.0 °F /  8.3 °C 36.2 °F /  2.3 °C 29.93 in /  1013.4 hPa SSW 4.0 mph /  6.4 km/h 15.0 mph /  24.1 km/h 66 % 0.00 in /  0 mm 0 W/m2
18:50 47.0 °F /  8.3 °C 36.2 °F /  2.3 °C 29.92 in /  1013.1 hPa South 5.0 mph /  8 km/h 15.0 mph /  24.1 km/h 66 % 0.00 in /  0 mm 0 W/m2
18:55 47.0 °F /  8.3 °C 36.2 °F /  2.3 °C 29.92 in /  1013.1 hPa SSW 5.0 mph /  8 km/h 15.0 mph /  24.1 km/h 66 % 0.00 in /  0 mm 0 W/m2
19:05 46.9 °F /  8.3 °C 36.1 °F /  2.3 °C 29.92 in /  1013.1 hPa South 5.0 mph /  8 km/h 15.0 mph /  24.1 km/h 66 % 0.00 in /  0 mm 0 W/m2
19:10 46.9 °F /  8.3 °C 36.1 °F /  2.3 °C 29.92 in /  1013.1 hPa SSW 6.0 mph /  9.7 km/h 6.0 mph /  9.7 km/h 66 % 0.00 in /  0 mm 0 W/m2
19:15 46.9 °F /  8.3 °C 36.5 °F /  2.5 °C 29.92 in /  1013.1 hPa SSW 4.0 mph /  6.4 km/h 15.0 mph /  24.1 km/h 67 % 0.00 in /  0 mm 0 W/m2
19:20 46.9 °F /  8.3 °C 36.5 °F /  2.5 °C 29.91 in /  1012.8 hPa SSE 4.0 mph /  6.4 km/h 4.0 mph /  6.4 km/h 67 % 0.00 in /  0 mm 0 W/m2
19:25 46.8 °F /  8.2 °C 36.4 °F /  2.4 °C 29.91 in /  1012.8 hPa SSW 5.0 mph /  8 km/h 7.0 mph /  11.3 km/h 67 % 0.00 in /  0 mm 0 W/m2
19:35 46.8 °F /  8.2 °C 36.4 °F /  2.4 °C 29.90 in /  1012.4 hPa SSE 6.0 mph /  9.7 km/h 7.0 mph /  11.3 km/h 67 % 0.00 in /  0 mm 0 W/m2
19:40 46.8 °F /  8.2 °C 36.4 °F /  2.4 °C 29.91 in /  1012.8 hPa South 5.0 mph /  8 km/h 5.0 mph /  8 km/h 67 % 0.00 in /  0 mm 0 W/m2
19:45 46.8 °F /  8.2 °C 36.4 °F /  2.4 °C 29.91 in /  1012.8 hPa SSW 5.0 mph /  8 km/h 15.0 mph /  24.1 km/h 67 % 0.00 in /  0 mm 0 W/m2
19:50 46.7 °F /  8.2 °C 35.9 °F /  2.2 °C 29.91 in /  1012.8 hPa SSW 5.0 mph /  8 km/h 5.0 mph /  8 km/h 66 % 0.00 in /  0 mm 0 W/m2
19:55 46.7 °F /  8.2 °C 35.9 °F /  2.2 °C 29.91 in /  1012.8 hPa SSW 6.0 mph /  9.7 km/h 10.0 mph /  16.1 km/h 66 % 0.00 in /  0 mm 0 W/m2
20:00 46.8 °F /  8.2 °C 35.3 °F /  1.8 °C 29.91 in /  1012.8 hPa SW 8.0 mph /  12.9 km/h 8.0 mph /  12.9 km/h 64 % 0.00 in /  0 mm 0 W/m2
20:10 46.8 °F /  8.2 °C 35.3 °F /  1.8 °C 29.91 in /  1012.8 hPa South 8.0 mph /  12.9 km/h 15.0 mph /  24.1 km/h 64 % 0.00 in /  0 mm 0 W/m2
20:20 46.8 °F /  8.2 °C 35.6 °F /  2 °C 29.91 in /  1012.8 hPa SW 6.0 mph /  9.7 km/h 15.0 mph /  24.1 km/h 65 % 0.00 in /  0 mm 0 W/m2
20:25 46.8 °F /  8.2 °C 35.3 °F /  1.8 °C 29.91 in /  1012.8 hPa SSW 7.0 mph /  11.3 km/h 15.0 mph /  24.1 km/h 64 % 0.00 in /  0 mm 0 W/m2
20:30 46.8 °F /  8.2 °C 35.3 °F /  1.8 °C 29.91 in /  1012.8 hPa South 7.0 mph /  11.3 km/h 7.0 mph /  11.3 km/h 64 % 0.00 in /  0 mm 0 W/m2
20:35 46.8 °F /  8.2 °C 35.6 °F /  2 °C 29.90 in /  1012.4 hPa South 6.0 mph /  9.7 km/h 12.0 mph /  19.3 km/h 65 % 0.00 in /  0 mm 0 W/m2
20:45 46.7 °F /  8.2 °C 35.9 °F /  2.2 °C 29.88 in /  1011.7 hPa SSE 7.0 mph /  11.3 km/h 15.0 mph /  24.1 km/h 66 % 0.00 in /  0 mm 0 W/m2
20:50 46.6 °F /  8.1 °C 35.8 °F /  2.1 °C 29.88 in /  1011.7 hPa South 6.0 mph /  9.7 km/h 6.0 mph /  9.7 km/h 66 % 0.00 in /  0 mm 0 W/m2
20:55 46.5 °F /  8.1 °C 35.7 °F /  2.1 °C 29.88 in /  1011.7 hPa SSW 6.0 mph /  9.7 km/h 8.0 mph /  12.9 km/h 66 % 0.00 in /  0 mm 0 W/m2
21:00 46.5 °F /  8.1 °C 36.1 °F /  2.3 °C 29.88 in /  1011.7 hPa SSW 6.0 mph /  9.7 km/h 6.0 mph /  9.7 km/h 67 % 0.00 in /  0 mm 0 W/m2
21:05 46.4 °F /  8 °C 36.0 °F /  2.2 °C 29.87 in /  1011.4 hPa South 6.0 mph /  9.7 km/h 9.0 mph /  14.5 km/h 67 % 0.00 in /  0 mm 0 W/m2
21:15 46.3 °F /  7.9 °C 35.9 °F /  2.2 °C 29.87 in /  1011.4 hPa SSE 8.0 mph /  12.9 km/h 8.0 mph /  12.9 km/h 67 % 0.00 in /  0 mm 0 W/m2
21:20 46.3 °F /  7.9 °C 36.3 °F /  2.4 °C 29.86 in /  1011.1 hPa South 7.0 mph /  11.3 km/h 15.0 mph /  24.1 km/h 68 % 0.00 in /  0 mm 0 W/m2
21:25 46.2 °F /  7.9 °C 36.6 °F /  2.6 °C 29.86 in /  1011.1 hPa SSW 8.0 mph /  12.9 km/h 16.0 mph /  25.7 km/h 69 % 0.00 in /  0 mm 0 W/m2
21:30 46.2 °F /  7.9 °C 37.0 °F /  2.8 °C 29.86 in /  1011.1 hPa SSW 10.0 mph /  16.1 km/h 15.0 mph /  24.1 km/h 70 % 0.00 in /  0 mm 0 W/m2
21:35 46.2 °F /  7.9 °C 37.0 °F /  2.8 °C 29.85 in /  1010.7 hPa SSW 12.0 mph /  19.3 km/h 15.0 mph /  24.1 km/h 70 % 0.00 in /  0 mm 0 W/m2
21:45 46.2 °F /  7.9 °C 37.7 °F /  3.2 °C 29.85 in /  1010.7 hPa SSW 12.0 mph /  19.3 km/h 15.0 mph /  24.1 km/h 72 % 0.00 in /  0 mm 0 W/m2
21:55 46.2 °F /  7.9 °C 38.4 °F /  3.6 °C 29.84 in /  1010.4 hPa South 12.0 mph /  19.3 km/h 15.0 mph /  24.1 km/h 74 % 0.00 in /  0 mm 0 W/m2
22:00 46.2 °F /  7.9 °C 38.7 °F /  3.7 °C 29.84 in /  1010.4 hPa South 14.0 mph /  22.5 km/h 18.0 mph /  29 km/h 75 % 0.00 in /  0 mm 0 W/m2
22:05 46.1 °F /  7.8 °C 39.0 °F /  3.9 °C 29.84 in /  1010.4 hPa SSE 13.0 mph /  20.9 km/h 18.0 mph /  29 km/h 76 % 0.00 in /  0 mm 0 W/m2
22:10 46.1 °F /  7.8 °C 39.0 °F /  3.9 °C 29.84 in /  1010.4 hPa SSW 11.0 mph /  17.7 km/h 11.0 mph /  17.7 km/h 76 % 0.00 in /  0 mm 0 W/m2
22:15 46.1 °F /  7.8 °C 39.0 °F /  3.9 °C 29.84 in /  1010.4 hPa SSE 10.0 mph /  16.1 km/h 15.0 mph /  24.1 km/h 76 % 0.00 in /  0 mm 0 W/m2
22:25 46.0 °F /  7.8 °C 39.2 °F /  4 °C 29.84 in /  1010.4 hPa SSE 9.0 mph /  14.5 km/h 15.0 mph /  24.1 km/h 77 % 0.00 in /  0 mm 0 W/m2
22:30 46.0 °F /  7.8 °C 39.2 °F /  4 °C 29.83 in /  1010 hPa SSE 8.0 mph /  12.9 km/h 15.0 mph /  24.1 km/h 77 % 0.00 in /  0 mm 0 W/m2
22:35 46.0 °F /  7.8 °C 39.2 °F /  4 °C 29.83 in /  1010 hPa SSE 7.0 mph /  11.3 km/h 15.0 mph /  24.1 km/h 77 % 0.00 in /  0 mm 0 W/m2
22:40 46.0 °F /  7.8 °C 39.5 °F /  4.2 °C 29.83 in /  1010 hPa SSW 6.0 mph /  9.7 km/h 6.0 mph /  9.7 km/h 78 % 0.00 in /  0 mm 0 W/m2
22:45 46.0 °F /  7.8 °C 39.9 °F /  4.4 °C 29.82 in /  1009.7 hPa South 4.0 mph /  6.4 km/h 15.0 mph /  24.1 km/h 79 % 0.00 in /  0 mm 0 W/m2
22:55 45.8 °F /  7.7 °C 40.3 °F /  4.6 °C 29.81 in /  1009.4 hPa South 6.0 mph /  9.7 km/h 8.0 mph /  12.9 km/h 81 % 0.00 in /  0 mm 0 W/m2
23:00 45.7 °F /  7.6 °C 40.5 °F /  4.7 °C 29.81 in /  1009.4 hPa SSW 7.0 mph /  11.3 km/h 15.0 mph /  24.1 km/h 82 % 0.00 in /  0 mm 0 W/m2
23:05 45.7 °F /  7.6 °C 40.5 °F /  4.7 °C 29.81 in /  1009.4 hPa SW 9.0 mph /  14.5 km/h 15.0 mph /  24.1 km/h 82 % 0.00 in /  0 mm 0 W/m2
23:15 45.6 °F /  7.6 °C 40.7 °F /  4.8 °C 29.81 in /  1009.4 hPa South 9.0 mph /  14.5 km/h 15.0 mph /  24.1 km/h 83 % 0.00 in /  0 mm 0 W/m2
23:20 45.6 °F /  7.6 °C 41.0 °F /  5 °C 29.81 in /  1009.4 hPa South 8.0 mph /  12.9 km/h 8.0 mph /  12.9 km/h 84 % 0.00 in /  0 mm 0 W/m2
23:30 45.4 °F /  7.4 °C 41.2 °F /  5.1 °C 29.79 in /  1008.7 hPa South 8.0 mph /  12.9 km/h 15.0 mph /  24.1 km/h 85 % 0.00 in /  0 mm 0 W/m2
23:35 45.3 °F /  7.4 °C 41.4 °F /  5.2 °C 29.79 in /  1008.7 hPa SSE 9.0 mph /  14.5 km/h 15.0 mph /  24.1 km/h 86 % 0.00 in /  0 mm 0 W/m2
23:40 45.2 °F /  7.3 °C 41.9 °F /  5.5 °C 29.79 in /  1008.7 hPa South 9.0 mph /  14.5 km/h 9.0 mph /  14.5 km/h 88 % 0.00 in /  0 mm 0 W/m2
23:45 45.1 °F /  7.3 °C 41.8 °F /  5.4 °C 29.79 in /  1008.7 hPa South 9.0 mph /  14.5 km/h 11.0 mph /  17.7 km/h 88 % 0.00 in /  0 mm 0 W/m2
23:50 45.1 °F /  7.3 °C 42.1 °F /  5.6 °C 29.78 in /  1008.4 hPa SSW 10.0 mph /  16.1 km/h 10.0 mph /  16.1 km/h 89 % 0.00 in /  0 mm 0 W/m2
23:55 45.1 °F /  7.3 °C 42.1 °F /  5.6 °C 29.77 in /  1008 hPa South 11.0 mph /  17.7 km/h 11.0 mph /  17.7 km/h 89 % 0.00 in /  0 mm 0 W/m2
Delerius-Weather
Compliments of Weather Underground - 2 mb

Data updates at regular intervals.